sensor_id;sensor_type;location;lat;lon;timestamp;temperature;humidity
22271;DHT22;11304;53.520;10.104;2022-07-24T00:00:58;12.20;99.90
22271;DHT22;11304;53.520;10.104;2022-07-24T00:03:24;12.10;99.90
22271;DHT22;11304;53.520;10.104;2022-07-24T00:05:49;12.10;99.90
22271;DHT22;11304;53.520;10.104;2022-07-24T00:08:15;12.10;99.90
22271;DHT22;11304;53.520;10.104;2022-07-24T00:10:42;12.10;99.90
22271;DHT22;11304;53.520;10.104;2022-07-24T00:13:08;12.10;99.90
22271;DHT22;11304;53.520;10.104;2022-07-24T00:15:34;12.10;99.90
22271;DHT22;11304;53.520;10.104;2022-07-24T00:18:00;12.10;99.90
22271;DHT22;11304;53.520;10.104;2022-07-24T00:20:25;12.00;99.90
22271;DHT22;11304;53.520;10.104;2022-07-24T00:22:51;11.90;99.90
22271;DHT22;11304;53.520;10.104;2022-07-24T00:25:17;11.90;99.90
22271;DHT22;11304;53.520;10.104;2022-07-24T00:27:43;11.80;99.90
22271;DHT22;11304;53.520;10.104;2022-07-24T00:30:09;11.80;99.90
22271;DHT22;11304;53.520;10.104;2022-07-24T00:32:35;11.80;99.90
22271;DHT22;11304;53.520;10.104;2022-07-24T00:35:00;11.80;99.90
22271;DHT22;11304;53.520;10.104;2022-07-24T00:37:26;11.80;99.90
22271;DHT22;11304;53.520;10.104;2022-07-24T00:39:52;11.90;99.90
22271;DHT22;11304;53.520;10.104;2022-07-24T00:42:18;11.90;99.90
22271;DHT22;11304;53.520;10.104;2022-07-24T00:44:44;11.90;99.90
22271;DHT22;11304;53.520;10.104;2022-07-24T00:47:10;11.90;99.90
22271;DHT22;11304;53.520;10.104;2022-07-24T00:49:35;11.90;99.90
22271;DHT22;11304;53.520;10.104;2022-07-24T00:52:01;11.80;99.90
22271;DHT22;11304;53.520;10.104;2022-07-24T00:54:27;11.80;99.90
22271;DHT22;11304;53.520;10.104;2022-07-24T00:56:53;11.70;99.90
22271;DHT22;11304;53.520;10.104;2022-07-24T00:59:19;11.70;99.90
22271;DHT22;11304;53.520;10.104;2022-07-24T01:01:47;11.60;99.90
22271;DHT22;11304;53.520;10.104;2022-07-24T01:04:13;11.50;99.90
22271;DHT22;11304;53.520;10.104;2022-07-24T01:06:46;11.50;99.90
22271;DHT22;11304;53.520;10.104;2022-07-24T01:09:12;11.40;99.90
22271;DHT22;11304;53.520;10.104;2022-07-24T01:11:41;11.40;99.90
22271;DHT22;11304;53.520;10.104;2022-07-24T01:14:09;11.50;99.90
22271;DHT22;11304;53.520;10.104;2022-07-24T01:16:35;11.50;99.90
22271;DHT22;11304;53.520;10.104;2022-07-24T01:19:01;11.40;99.90
22271;DHT22;11304;53.520;10.104;2022-07-24T10:29:53;29.30;99.90
22271;DHT22;11304;53.520;10.104;2022-07-24T10:32:21;29.10;99.90
22271;DHT22;11304;53.520;10.104;2022-07-24T10:37:39;28.90;99.90
22271;DHT22;11304;53.520;10.104;2022-07-24T10:40:25;29.10;99.00
22271;DHT22;11304;53.520;10.104;2022-07-24T10:45:35;29.60;97.10
22271;DHT22;11304;53.520;10.104;2022-07-24T10:56:38;29.80;97.60
22271;DHT22;11304;53.520;10.104;2022-07-24T10:59:11;29.90;95.50
22271;DHT22;11304;53.520;10.104;2022-07-24T11:01:41;29.90;94.20
22271;DHT22;11304;53.520;10.104;2022-07-24T11:09:17;29.50;95.00
22271;DHT22;11304;53.520;10.104;2022-07-24T11:14:25;29.60;94.10
22271;DHT22;11304;53.520;10.104;2022-07-24T11:16:52;29.60;94.50
22271;DHT22;11304;53.520;10.104;2022-07-24T11:21:47;29.90;94.60
22271;DHT22;11304;53.520;10.104;2022-07-24T11:26:51;30.10;92.60
22271;DHT22;11304;53.520;10.104;2022-07-24T11:29:27;30.30;94.60
22271;DHT22;11304;53.520;10.104;2022-07-24T11:31:57;30.40;92.60
22271;DHT22;11304;53.520;10.104;2022-07-24T11:34:24;30.30;92.60
22271;DHT22;11304;53.520;10.104;2022-07-24T11:36:51;30.30;93.00
22271;DHT22;11304;53.520;10.104;2022-07-24T11:39:19;30.50;92.90
22271;DHT22;11304;53.520;10.104;2022-07-24T11:41:46;30.70;92.70
22271;DHT22;11304;53.520;10.104;2022-07-24T11:44:13;30.50;91.10
22271;DHT22;11304;53.520;10.104;2022-07-24T11:46:40;30.50;93.10
22271;DHT22;11304;53.520;10.104;2022-07-24T11:49:09;30.70;92.30
22271;DHT22;11304;53.520;10.104;2022-07-24T11:51:48;31.00;90.20
22271;DHT22;11304;53.520;10.104;2022-07-24T11:54:19;30.90;90.00
22271;DHT22;11304;53.520;10.104;2022-07-24T11:56:45;30.70;90.10
22271;DHT22;11304;53.520;10.104;2022-07-24T11:59:32;30.90;91.30
22271;DHT22;11304;53.520;10.104;2022-07-24T12:02:09;30.80;90.70
22271;DHT22;11304;53.520;10.104;2022-07-24T12:04:38;30.90;86.40
22271;DHT22;11304;53.520;10.104;2022-07-24T12:07:07;30.90;87.20
22271;DHT22;11304;53.520;10.104;2022-07-24T12:09:42;31.00;89.10
22271;DHT22;11304;53.520;10.104;2022-07-24T12:12:27;31.20;87.60
22271;DHT22;11304;53.520;10.104;2022-07-24T12:17:27;31.30;86.70
22271;DHT22;11304;53.520;10.104;2022-07-24T12:19:57;31.60;84.20
22271;DHT22;11304;53.520;10.104;2022-07-24T12:24:51;31.50;83.70
22271;DHT22;11304;53.520;10.104;2022-07-24T12:27:41;31.00;83.10
22271;DHT22;11304;53.520;10.104;2022-07-24T12:32:57;31.60;82.30
22271;DHT22;11304;53.520;10.104;2022-07-24T12:37:51;31.80;82.80
22271;DHT22;11304;53.520;10.104;2022-07-24T12:40:35;32.20;82.30
22271;DHT22;11304;53.520;10.104;2022-07-24T12:43:07;32.30;80.50
22271;DHT22;11304;53.520;10.104;2022-07-24T12:48:20;32.30;77.50
22271;DHT22;11304;53.520;10.104;2022-07-24T12:51:04;32.30;81.40
22271;DHT22;11304;53.520;10.104;2022-07-24T12:53:33;32.10;76.50
22271;DHT22;11304;53.520;10.104;2022-07-24T13:16:00;32.20;73.50
22271;DHT22;11304;53.520;10.104;2022-07-24T13:18:28;32.10;71.90
22271;DHT22;11304;53.520;10.104;2022-07-24T13:20:54;31.90;75.40
22271;DHT22;11304;53.520;10.104;2022-07-24T13:23:19;31.60;74.30
22271;DHT22;11304;53.520;10.104;2022-07-24T13:25:45;31.60;75.90
22271;DHT22;11304;53.520;10.104;2022-07-24T13:28:13;31.40;76.20
22271;DHT22;11304;53.520;10.104;2022-07-24T13:30:38;31.30;78.40
22271;DHT22;11304;53.520;10.104;2022-07-24T13:33:04;31.50;78.00
22271;DHT22;11304;53.520;10.104;2022-07-24T13:35:30;31.70;75.10
22271;DHT22;11304;53.520;10.104;2022-07-24T13:37:56;31.80;78.10
22271;DHT22;11304;53.520;10.104;2022-07-24T13:40:21;32.00;74.90
22271;DHT22;11304;53.520;10.104;2022-07-24T13:42:47;31.60;76.30
22271;DHT22;11304;53.520;10.104;2022-07-24T13:45:13;31.60;73.60
22271;DHT22;11304;53.520;10.104;2022-07-24T13:47:38;31.60;76.00
22271;DHT22;11304;53.520;10.104;2022-07-24T13:50:05;31.60;77.00
22271;DHT22;11304;53.520;10.104;2022-07-24T13:52:30;31.70;75.20
22271;DHT22;11304;53.520;10.104;2022-07-24T13:54:56;31.80;77.10
22271;DHT22;11304;53.520;10.104;2022-07-24T13:57:22;32.20;75.90
22271;DHT22;11304;53.520;10.104;2022-07-24T13:59:47;32.60;74.00
22271;DHT22;11304;53.520;10.104;2022-07-24T14:02:13;32.70;75.10
22271;DHT22;11304;53.520;10.104;2022-07-24T14:04:40;32.80;72.00
22271;DHT22;11304;53.520;10.104;2022-07-24T14:07:07;32.60;72.10
22271;DHT22;11304;53.520;10.104;2022-07-24T14:09:32;32.50;74.70
22271;DHT22;11304;53.520;10.104;2022-07-24T14:11:58;32.70;72.60
22271;DHT22;11304;53.520;10.104;2022-07-24T14:14:24;32.80;72.40
22271;DHT22;11304;53.520;10.104;2022-07-24T14:16:50;33.10;67.70
22271;DHT22;11304;53.520;10.104;2022-07-24T16:33:19;31.90;66.30
22271;DHT22;11304;53.520;10.104;2022-07-24T16:35:45;31.90;67.20
22271;DHT22;11304;53.520;10.104;2022-07-24T16:38:11;31.70;66.80
22271;DHT22;11304;53.520;10.104;2022-07-24T16:40:36;31.70;67.70
22271;DHT22;11304;53.520;10.104;2022-07-24T16:43:02;31.80;68.80
22271;DHT22;11304;53.520;10.104;2022-07-24T16:45:28;31.90;68.30
22271;DHT22;11304;53.520;10.104;2022-07-24T16:47:54;31.90;67.90
22271;DHT22;11304;53.520;10.104;2022-07-24T16:50:19;31.80;67.10
22271;DHT22;11304;53.520;10.104;2022-07-24T16:52:45;31.80;67.40
22271;DHT22;11304;53.520;10.104;2022-07-24T16:55:11;31.80;65.60
22271;DHT22;11304;53.520;10.104;2022-07-24T16:57:36;31.70;67.20
22271;DHT22;11304;53.520;10.104;2022-07-24T17:00:04;31.80;66.20
22271;DHT22;11304;53.520;10.104;2022-07-24T17:02:30;31.60;66.70
22271;DHT22;11304;53.520;10.104;2022-07-24T17:04:56;31.70;67.00
22271;DHT22;11304;53.520;10.104;2022-07-24T17:07:22;31.80;67.90
22271;DHT22;11304;53.520;10.104;2022-07-24T17:12:13;31.90;66.60
22271;DHT22;11304;53.520;10.104;2022-07-24T17:14:39;31.90;66.60
22271;DHT22;11304;53.520;10.104;2022-07-24T17:17:05;31.70;68.10
22271;DHT22;11304;53.520;10.104;2022-07-24T17:19:31;31.70;68.20
22271;DHT22;11304;53.520;10.104;2022-07-24T17:21:59;31.50;67.90
22271;DHT22;11304;53.520;10.104;2022-07-24T17:24:25;31.50;69.00
22271;DHT22;11304;53.520;10.104;2022-07-24T17:26:50;31.40;69.50
22271;DHT22;11304;53.520;10.104;2022-07-24T17:29:16;31.30;69.10
22271;DHT22;11304;53.520;10.104;2022-07-24T17:31:42;31.30;70.00
22271;DHT22;11304;53.520;10.104;2022-07-24T17:34:08;31.40;69.70
22271;DHT22;11304;53.520;10.104;2022-07-24T17:36:33;31.30;68.90
22271;DHT22;11304;53.520;10.104;2022-07-24T17:38:59;31.30;71.10
22271;DHT22;11304;53.520;10.104;2022-07-24T17:41:25;31.10;70.60
22271;DHT22;11304;53.520;10.104;2022-07-24T17:43:51;30.80;71.40
22271;DHT22;11304;53.520;10.104;2022-07-24T17:46:17;30.80;71.40
22271;DHT22;11304;53.520;10.104;2022-07-24T17:48:43;30.70;72.60
22271;DHT22;11304;53.520;10.104;2022-07-24T17:51:08;30.70;72.60
22271;DHT22;11304;53.520;10.104;2022-07-24T17:53:34;30.70;72.80
22271;DHT22;11304;53.520;10.104;2022-07-24T17:56:00;30.60;73.70
22271;DHT22;11304;53.520;10.104;2022-07-24T17:58:25;30.50;74.00
22271;DHT22;11304;53.520;10.104;2022-07-24T18:00:51;30.50;75.10
22271;DHT22;11304;53.520;10.104;2022-07-24T18:03:17;30.40;75.20
22271;DHT22;11304;53.520;10.104;2022-07-24T18:05:43;30.40;75.30
22271;DHT22;11304;53.520;10.104;2022-07-24T18:08:09;30.30;75.20
22271;DHT22;11304;53.520;10.104;2022-07-24T18:10:35;30.20;74.90
22271;DHT22;11304;53.520;10.104;2022-07-24T18:13:01;30.20;76.20
22271;DHT22;11304;53.520;10.104;2022-07-24T18:15:26;30.00;76.70
22271;DHT22;11304;53.520;10.104;2022-07-24T18:17:52;29.90;77.80
22271;DHT22;11304;53.520;10.104;2022-07-24T18:20:18;29.80;78.60
22271;DHT22;11304;53.520;10.104;2022-07-24T18:22:44;29.60;79.60
22271;DHT22;11304;53.520;10.104;2022-07-24T18:25:10;29.50;79.30
22271;DHT22;11304;53.520;10.104;2022-07-24T18:27:37;29.40;79.90
22271;DHT22;11304;53.520;10.104;2022-07-24T18:30:04;29.30;78.70
22271;DHT22;11304;53.520;10.104;2022-07-24T18:32:30;29.10;80.70
22271;DHT22;11304;53.520;10.104;2022-07-24T18:34:56;29.00;83.00
22271;DHT22;11304;53.520;10.104;2022-07-24T18:37:21;28.80;84.30
22271;DHT22;11304;53.520;10.104;2022-07-24T18:39:47;28.60;84.60
22271;DHT22;11304;53.520;10.104;2022-07-24T18:42:13;28.50;85.00
22271;DHT22;11304;53.520;10.104;2022-07-24T18:44:39;28.40;87.10
22271;DHT22;11304;53.520;10.104;2022-07-24T18:47:04;28.30;88.10
22271;DHT22;11304;53.520;10.104;2022-07-24T18:49:30;28.20;88.90
22271;DHT22;11304;53.520;10.104;2022-07-24T18:51:56;28.10;90.20
22271;DHT22;11304;53.520;10.104;2022-07-24T18:54:22;28.00;90.90
22271;DHT22;11304;53.520;10.104;2022-07-24T18:56:48;27.90;91.70
22271;DHT22;11304;53.520;10.104;2022-07-24T18:59:14;27.80;92.70
22271;DHT22;11304;53.520;10.104;2022-07-24T19:01:39;27.60;93.40
22271;DHT22;11304;53.520;10.104;2022-07-24T19:04:05;27.50;94.20
22271;DHT22;11304;53.520;10.104;2022-07-24T19:06:31;27.40;95.10
22271;DHT22;11304;53.520;10.104;2022-07-24T19:08:57;27.30;99.90
22271;DHT22;11304;53.520;10.104;2022-07-24T19:11:23;27.00;99.90
22271;DHT22;11304;53.520;10.104;2022-07-24T19:13:48;26.80;99.90
22271;DHT22;11304;53.520;10.104;2022-07-24T19:16:14;26.50;99.90
22271;DHT22;11304;53.520;10.104;2022-07-24T19:18:40;26.30;99.90
22271;DHT22;11304;53.520;10.104;2022-07-24T19:21:07;26.00;99.90
22271;DHT22;11304;53.520;10.104;2022-07-24T19:23:33;25.80;99.90
22271;DHT22;11304;53.520;10.104;2022-07-24T19:26:00;25.50;99.90
22271;DHT22;11304;53.520;10.104;2022-07-24T19:28:26;25.40;99.90
22271;DHT22;11304;53.520;10.104;2022-07-24T19:30:52;25.10;99.90
22271;DHT22;11304;53.520;10.104;2022-07-24T22:06:57;20.20;99.90
22271;DHT22;11304;53.520;10.104;2022-07-24T22:09:24;20.10;99.90
22271;DHT22;11304;53.520;10.104;2022-07-24T22:11:49;20.00;99.90
22271;DHT22;11304;53.520;10.104;2022-07-24T22:14:15;20.00;99.90
22271;DHT22;11304;53.520;10.104;2022-07-24T22:16:41;19.90;99.90
22271;DHT22;11304;53.520;10.104;2022-07-24T22:19:07;19.80;99.90
22271;DHT22;11304;53.520;10.104;2022-07-24T22:21:33;19.70;99.90
22271;DHT22;11304;53.520;10.104;2022-07-24T22:23:59;19.70;99.90
22271;DHT22;11304;53.520;10.104;2022-07-24T22:26:24;19.70;99.90
22271;DHT22;11304;53.520;10.104;2022-07-24T22:28:50;19.50;99.90
22271;DHT22;11304;53.520;10.104;2022-07-24T22:31:16;19.50;99.90
22271;DHT22;11304;53.520;10.104;2022-07-24T22:33:42;19.50;99.90
22271;DHT22;11304;53.520;10.104;2022-07-24T22:36:08;19.50;99.90
22271;DHT22;11304;53.520;10.104;2022-07-24T22:38:36;19.50;99.90
22271;DHT22;11304;53.520;10.104;2022-07-24T22:41:03;19.50;99.90
22271;DHT22;11304;53.520;10.104;2022-07-24T22:43:31;19.60;99.90
22271;DHT22;11304;53.520;10.104;2022-07-24T22:45:58;19.60;99.90
22271;DHT22;11304;53.520;10.104;2022-07-24T22:48:25;19.60;99.90
22271;DHT22;11304;53.520;10.104;2022-07-24T22:50:51;19.70;99.90
22271;DHT22;11304;53.520;10.104;2022-07-24T22:53:17;19.80;99.90
22271;DHT22;11304;53.520;10.104;2022-07-24T22:55:43;19.70;99.90
22271;DHT22;11304;53.520;10.104;2022-07-24T22:58:10;19.70;99.90
22271;DHT22;11304;53.520;10.104;2022-07-24T23:00:36;19.60;99.90
22271;DHT22;11304;53.520;10.104;2022-07-24T23:03:02;19.70;99.90
22271;DHT22;11304;53.520;10.104;2022-07-24T23:05:28;19.70;99.90
22271;DHT22;11304;53.520;10.104;2022-07-24T23:07:54;19.60;99.90
22271;DHT22;11304;53.520;10.104;2022-07-24T23:10:19;19.70;99.90
22271;DHT22;11304;53.520;10.104;2022-07-24T23:12:45;19.60;99.90
22271;DHT22;11304;53.520;10.104;2022-07-24T23:15:11;19.60;99.90
22271;DHT22;11304;53.520;10.104;2022-07-24T23:17:37;19.60;99.90
22271;DHT22;11304;53.520;10.104;2022-07-24T23:20:03;19.70;99.90
22271;DHT22;11304;53.520;10.104;2022-07-24T23:22:29;19.60;99.90
22271;DHT22;11304;53.520;10.104;2022-07-24T23:24:55;19.60;99.90
22271;DHT22;11304;53.520;10.104;2022-07-24T23:27:21;19.60;99.90
22271;DHT22;11304;53.520;10.104;2022-07-24T23:29:47;19.50;99.90
22271;DHT22;11304;53.520;10.104;2022-07-24T23:32:13;19.40;99.90
22271;DHT22;11304;53.520;10.104;2022-07-24T23:34:38;19.40;99.90
22271;DHT22;11304;53.520;10.104;2022-07-24T23:37:04;19.30;99.90
22271;DHT22;11304;53.520;10.104;2022-07-24T23:39:30;19.30;99.90
22271;DHT22;11304;53.520;10.104;2022-07-24T23:41:56;19.30;99.90
22271;DHT22;11304;53.520;10.104;2022-07-24T23:44:22;19.30;99.90
22271;DHT22;11304;53.520;10.104;2022-07-24T23:46:47;19.40;99.90
22271;DHT22;11304;53.520;10.104;2022-07-24T23:49:13;19.50;99.90
22271;DHT22;11304;53.520;10.104;2022-07-24T23:51:39;19.70;99.90
22271;DHT22;11304;53.520;10.104;2022-07-24T23:54:04;19.80;99.90
22271;DHT22;11304;53.520;10.104;2022-07-24T23:56:30;19.90;99.90
22271;DHT22;11304;53.520;10.104;2022-07-24T23:58:56;20.20;99.90
